This is the latest recevied weather packets stored in our database for station/object JE0GNV-13. If no packets are shown the sender has not sent any weather packets the latest 1 day(s).
| Time | Temp. | Humidity | Pressure | Rain* | Wind** | Luminosity | Snow |
|---|---|---|---|---|---|---|---|
| 1778058601 | 15.56° C | 75% | 1015.8 hPa | 0 mm | - | - | - |
| 1778058002 | 15.56° C | 75% | 1016 hPa | 0 mm | - | - | - |
| 1778056801 | 15.56° C | 73% | 1015.9 hPa | 0 mm | - | - | - |
| 1778056201 | 15.56° C | 73% | 1016 hPa | 0 mm | - | - | - |
| 1778055600 | 16.11° C | 72% | 1016.1 hPa | 0 mm | - | - | - |
| 1778052002 | 17.22° C | 70% | 1016.4 hPa | 0 mm | - | - | - |
| 1778051401 | 17.78° C | 67% | 1016.4 hPa | 0 mm | - | - | - |
| 1778050801 | 17.78° C | 65% | 1016 hPa | 0 mm | - | - | - |
| 1778050201 | 17.78° C | 68% | 1016.1 hPa | 0 mm | - | - | - |
| 1778048402 | 17.22° C | 67% | 1016.3 hPa | 0 mm | - | - | - |
| 1778047801 | 17.78° C | 66% | 1016.3 hPa | 0 mm | - | - | - |
| 1778047202 | 17.78° C | 66% | 1016.4 hPa | 0 mm | - | - | - |
| 1778046601 | 18.33° C | 65% | 1016.5 hPa | 0 mm | - | - | - |
| 1778044800 | 17.78° C | 65% | 1016.8 hPa | 0 mm | - | - | - |
| 1778043002 | 16.67° C | 68% | 1017.2 hPa | 0 mm | - | - | - |
| 1778042402 | 16.67° C | 69% | 1017.3 hPa | 0 mm | - | - | - |
| 1778039402 | 15.56° C | 70% | 1018 hPa | 0 mm | - | - | - |
| 1778038801 | 15.56° C | 70% | 1018 hPa | 0 mm | - | - | - |
| 1778038200 | 15.56° C | 68% | 1018.1 hPa | 0 mm | - | - | - |
| 1778035801 | 16.11° C | 68% | 1018.3 hPa | 0 mm | - | - | - |
| 1778035201 | 16.11° C | 67% | 1018.3 hPa | 0 mm | - | - | - |
| 1778034000 | 16.11° C | 68% | 1018.5 hPa | 0 mm | - | - | - |
| 1778033400 | 16.11° C | 69% | 1018.5 hPa | 0 mm | - | - | - |
* Rain latest hour (hover to see other rain measurements)
** Current wind speed in m/s (hover to see current wind gust speed)